createdAt,value
2023-05-21T00:02:19.880Z,16.20
2023-05-21T00:04:48.693Z,16.30
2023-05-21T00:07:16.142Z,16.30
2023-05-21T00:09:43.582Z,16.20
2023-05-21T00:12:11.062Z,16.20
2023-05-21T00:14:38.836Z,16.20
2023-05-21T00:17:06.488Z,16.20
2023-05-21T00:19:33.840Z,16.20
2023-05-21T00:22:03.547Z,16.10
2023-05-21T00:24:31.050Z,16.10
2023-05-21T00:26:58.378Z,16.10
2023-05-21T00:29:27.745Z,16.10
2023-05-21T00:31:55.824Z,16.10
2023-05-21T00:34:23.255Z,16.10
2023-05-21T00:36:50.640Z,16.10
2023-05-21T00:39:17.871Z,16.00
2023-05-21T00:41:46.631Z,16.00
2023-05-21T00:44:14.296Z,16.00
2023-05-21T00:46:41.780Z,16.00
2023-05-21T00:49:09.168Z,16.00
2023-05-21T00:51:36.728Z,16.00
2023-05-21T00:54:04.421Z,15.90
2023-05-21T00:56:32.480Z,15.90
2023-05-21T00:58:59.966Z,15.90
2023-05-21T01:01:27.754Z,15.90
2023-05-21T01:03:57.663Z,15.90
2023-05-21T01:06:25.091Z,15.90
2023-05-21T01:08:52.483Z,15.90
2023-05-21T01:11:25.164Z,15.80
2023-05-21T01:13:52.519Z,15.80
2023-05-21T01:16:20.155Z,15.80
2023-05-21T01:18:47.940Z,15.90
2023-05-21T01:21:17.462Z,15.80
2023-05-21T01:23:44.987Z,15.80
2023-05-21T01:26:12.942Z,15.80
2023-05-21T01:28:40.274Z,15.80
2023-05-21T01:31:35.953Z,15.80
2023-05-21T01:34:07.779Z,15.70
2023-05-21T01:36:42.168Z,15.70
2023-05-21T01:39:37.402Z,15.70
2023-05-21T01:42:10.147Z,15.60
2023-05-21T01:44:37.882Z,15.60
2023-05-21T01:47:05.876Z,15.60
2023-05-21T01:49:34.637Z,15.50
2023-05-21T01:52:02.704Z,15.60
2023-05-21T01:54:29.976Z,15.60
2023-05-21T01:56:57.259Z,15.60
2023-05-21T01:59:24.577Z,15.60
2023-05-21T02:01:51.912Z,15.60
2023-05-21T02:04:19.222Z,15.60
2023-05-21T02:06:46.897Z,15.60
2023-05-21T02:09:14.099Z,15.60
2023-05-21T02:11:41.366Z,15.60
2023-05-21T02:14:10.435Z,15.50
2023-05-21T02:16:38.432Z,15.50
2023-05-21T02:19:06.713Z,15.50
2023-05-21T02:21:34.057Z,15.50
2023-05-21T02:24:01.355Z,15.50
2023-05-21T02:26:29.075Z,15.50
2023-05-21T02:28:56.463Z,15.50
2023-05-21T02:31:23.768Z,15.50
2023-05-21T02:33:51.659Z,15.50
2023-05-21T02:36:19.215Z,15.50
2023-05-21T02:38:46.618Z,15.50
2023-05-21T02:41:14.365Z,15.40
2023-05-21T02:43:41.705Z,15.50
2023-05-21T02:46:09.118Z,15.40
2023-05-21T02:48:36.516Z,15.40
2023-05-21T02:51:05.275Z,15.50
2023-05-21T02:53:32.610Z,15.40
2023-05-21T02:55:59.884Z,15.40
2023-05-21T02:58:27.857Z,15.30
2023-05-21T03:00:55.274Z,15.30
2023-05-21T03:03:22.867Z,15.30
2023-05-21T03:05:50.485Z,15.40
2023-05-21T03:08:19.189Z,15.40
2023-05-21T03:10:47.031Z,15.40
2023-05-21T03:13:14.354Z,15.40
2023-05-21T03:15:41.772Z,15.40
2023-05-21T03:18:10.152Z,15.40
2023-05-21T03:20:43.482Z,15.40
2023-05-21T03:23:15.701Z,15.40
2023-05-21T03:25:45.811Z,15.30
2023-05-21T03:28:13.507Z,15.30
2023-05-21T03:30:49.807Z,15.20
2023-05-21T03:33:40.431Z,15.20
2023-05-21T03:36:22.353Z,15.30
2023-05-21T03:38:49.672Z,15.30
2023-05-21T03:41:17.064Z,15.30
2023-05-21T03:43:48.419Z,15.30
2023-05-21T03:46:15.904Z,15.40
2023-05-21T03:48:58.174Z,15.30
2023-05-21T03:51:27.401Z,15.30
2023-05-21T03:53:54.717Z,15.30
2023-05-21T03:56:22.989Z,15.20
2023-05-21T03:58:50.543Z,15.30
2023-05-21T04:01:18.184Z,15.30
2023-05-21T04:03:46.658Z,15.30
2023-05-21T04:06:15.916Z,15.30
2023-05-21T04:08:44.629Z,15.20
2023-05-21T04:11:11.968Z,15.20
2023-05-21T04:13:39.293Z,15.30
2023-05-21T04:16:09.064Z,15.20
2023-05-21T04:18:36.535Z,15.20
2023-05-21T04:21:04.206Z,15.20
2023-05-21T04:23:32.509Z,15.20
2023-05-21T04:26:02.948Z,15.20
2023-05-21T04:28:30.454Z,15.10
2023-05-21T04:30:58.661Z,15.10
2023-05-21T04:33:26.081Z,15.10
2023-05-21T04:35:53.625Z,15.10
2023-05-21T04:38:21.079Z,15.10
2023-05-21T04:40:52.230Z,15.20
2023-05-21T04:43:25.963Z,15.20
2023-05-21T04:45:54.860Z,15.20
2023-05-21T04:48:24.865Z,15.20
2023-05-21T04:50:53.566Z,15.30
2023-05-21T04:53:21.824Z,15.30
2023-05-21T04:55:49.180Z,15.30
2023-05-21T04:58:18.372Z,15.30
2023-05-21T05:00:46.893Z,15.30
2023-05-21T05:03:14.846Z,15.30
2023-05-21T05:05:43.939Z,15.30
2023-05-21T05:08:13.859Z,15.40
2023-05-21T05:10:42.887Z,15.40
2023-05-21T05:13:10.219Z,15.50
2023-05-21T05:15:38.420Z,15.50
2023-05-21T05:18:08.557Z,15.50
2023-05-21T05:20:36.168Z,15.50
2023-05-21T05:23:03.490Z,15.50
2023-05-21T05:25:30.779Z,15.60
2023-05-21T05:27:58.714Z,15.70
2023-05-21T05:30:26.012Z,15.70
2023-05-21T05:32:56.604Z,15.60
2023-05-21T05:35:24.134Z,15.60
2023-05-21T05:37:51.383Z,15.70
2023-05-21T05:40:18.690Z,15.70
2023-05-21T05:42:46.423Z,15.70
2023-05-21T05:45:16.181Z,15.70
2023-05-21T05:47:43.520Z,15.70
2023-05-21T05:50:11.264Z,15.70
2023-05-21T05:52:38.526Z,15.70
2023-05-21T05:55:08.985Z,15.50
2023-05-21T05:57:36.453Z,15.60
2023-05-21T06:00:10.597Z,15.70
2023-05-21T06:02:44.317Z,15.70
2023-05-21T06:05:11.916Z,15.80
2023-05-21T06:07:40.696Z,15.80
2023-05-21T06:10:09.116Z,15.90
2023-05-21T06:12:36.676Z,16.00
2023-05-21T06:15:05.006Z,16.00
2023-05-21T06:17:32.585Z,16.00
2023-05-21T06:20:01.117Z,16.10
2023-05-21T06:22:28.633Z,16.10
2023-05-21T06:24:56.535Z,16.00
2023-05-21T06:27:24.100Z,16.10
2023-05-21T06:29:51.821Z,16.10
2023-05-21T06:32:21.301Z,16.10
2023-05-21T06:34:48.696Z,16.10
2023-05-21T06:37:21.108Z,16.10
2023-05-21T06:39:48.506Z,16.20
2023-05-21T06:42:15.965Z,16.30
2023-05-21T06:45:02.098Z,16.40
2023-05-21T06:47:32.467Z,16.40
2023-05-21T06:49:59.989Z,16.40
2023-05-21T06:52:27.455Z,16.50
2023-05-21T06:54:54.998Z,16.60
2023-05-21T06:57:23.717Z,16.60
2023-05-21T06:59:51.054Z,16.70
2023-05-21T07:02:18.351Z,16.70
2023-05-21T07:04:45.904Z,16.70
2023-05-21T07:07:13.370Z,16.70
2023-05-21T07:09:40.735Z,16.70
2023-05-21T07:12:08.802Z,16.80
2023-05-21T07:14:36.116Z,16.80
2023-05-21T07:17:03.853Z,16.90
2023-05-21T07:19:32.355Z,17.00
2023-05-21T07:21:59.951Z,17.00
2023-05-21T07:24:27.921Z,17.10
2023-05-21T07:26:55.361Z,17.10
2023-05-21T07:29:22.954Z,17.20
2023-05-21T07:31:50.356Z,17.20
2023-05-21T07:34:17.702Z,17.30
2023-05-21T07:36:44.997Z,17.30
2023-05-21T07:39:12.511Z,17.30
2023-05-21T07:41:39.981Z,17.30
2023-05-21T07:44:08.921Z,17.30
2023-05-21T07:46:40.217Z,17.30
2023-05-21T07:49:10.712Z,17.30
2023-05-21T07:51:39.578Z,17.40
2023-05-21T07:54:07.380Z,17.40
2023-05-21T07:56:36.200Z,17.50
2023-05-21T07:59:04.827Z,17.50
2023-05-21T08:01:33.083Z,17.60
2023-05-21T08:04:05.754Z,17.70
2023-05-21T08:06:34.037Z,17.70
2023-05-21T08:09:06.110Z,17.80
2023-05-21T08:11:33.608Z,17.80
2023-05-21T08:14:01.005Z,17.80
2023-05-21T08:16:28.499Z,17.80
2023-05-21T08:18:56.012Z,17.90
2023-05-21T08:21:24.025Z,17.90
2023-05-21T08:23:54.505Z,18.00
2023-05-21T08:26:21.915Z,18.00
2023-05-21T08:28:49.241Z,18.00
2023-05-21T08:31:18.643Z,18.10
2023-05-21T08:33:53.425Z,18.20
2023-05-21T08:36:28.214Z,18.20
2023-05-21T08:39:01.505Z,18.20
2023-05-21T08:41:44.187Z,18.30
2023-05-21T08:44:12.904Z,18.30
2023-05-21T08:46:42.730Z,18.40
2023-05-21T08:49:13.575Z,18.50
2023-05-21T08:51:41.815Z,18.50
2023-05-21T08:54:09.412Z,18.60
2023-05-21T08:56:38.414Z,18.60
2023-05-21T08:59:06.004Z,18.70
2023-05-21T09:01:38.217Z,18.80
2023-05-21T09:04:20.966Z,18.80
2023-05-21T09:06:52.215Z,18.90
2023-05-21T09:09:34.192Z,19.00
2023-05-21T09:12:03.437Z,19.00
2023-05-21T09:14:31.671Z,19.10
2023-05-21T09:17:04.136Z,19.20
2023-05-21T09:19:32.337Z,19.20
2023-05-21T09:22:04.398Z,19.20
2023-05-21T09:24:36.058Z,19.30
2023-05-21T09:27:07.910Z,19.30
2023-05-21T09:29:35.507Z,19.30
2023-05-21T09:32:07.806Z,19.30
2023-05-21T09:34:37.287Z,19.40
2023-05-21T09:37:13.482Z,19.50
2023-05-21T09:39:48.629Z,19.60
2023-05-21T09:42:16.263Z,19.70
2023-05-21T09:44:44.240Z,19.80
2023-05-21T09:47:12.140Z,19.90
2023-05-21T09:49:39.488Z,19.90
2023-05-21T09:52:06.923Z,19.90
2023-05-21T09:54:35.273Z,20.00
2023-05-21T09:57:03.175Z,20.20
2023-05-21T09:59:40.527Z,20.20
2023-05-21T10:02:20.593Z,20.30
2023-05-21T10:04:52.044Z,20.40
2023-05-21T10:07:29.187Z,20.40
2023-05-21T10:09:59.172Z,20.50
2023-05-21T10:12:27.604Z,20.60
2023-05-21T10:15:01.176Z,20.60
2023-05-21T10:17:29.663Z,20.70
2023-05-21T10:19:59.371Z,20.80
2023-05-21T10:22:27.350Z,20.80
2023-05-21T10:24:54.773Z,20.90
2023-05-21T10:27:23.066Z,20.90
2023-05-21T10:29:52.008Z,21.00
2023-05-21T10:32:22.577Z,21.10
2023-05-21T10:34:52.260Z,21.10
2023-05-21T10:37:23.003Z,21.20
2023-05-21T10:39:52.961Z,21.30
2023-05-21T10:42:32.234Z,21.40
2023-05-21T10:45:16.728Z,21.40
2023-05-21T10:48:12.524Z,21.40
2023-05-21T10:51:06.940Z,21.50
2023-05-21T10:54:03.968Z,21.60
2023-05-21T10:56:44.871Z,21.60
2023-05-21T10:59:35.128Z,21.70
2023-05-21T11:02:03.774Z,21.70
2023-05-21T11:04:32.159Z,21.80
2023-05-21T11:06:59.466Z,21.90
2023-05-21T11:09:27.480Z,22.00
2023-05-21T11:11:59.091Z,22.00
2023-05-21T11:14:39.360Z,22.10
2023-05-21T11:17:15.974Z,22.10
2023-05-21T11:19:45.209Z,22.20
2023-05-21T11:22:24.528Z,22.40
2023-05-21T11:24:52.833Z,22.50
2023-05-21T11:27:43.480Z,22.50
2023-05-21T11:30:16.108Z,22.60
2023-05-21T11:33:08.130Z,22.70
2023-05-21T11:36:00.057Z,22.80
2023-05-21T11:38:33.940Z,22.80
2023-05-21T11:41:04.360Z,22.90
2023-05-21T11:43:31.796Z,22.90
2023-05-21T11:45:59.445Z,23.00
2023-05-21T11:48:28.508Z,23.10
2023-05-21T11:50:57.473Z,23.10
2023-05-21T11:53:24.825Z,23.20
2023-05-21T11:55:57.586Z,23.30
2023-05-21T11:58:25.178Z,23.40
2023-05-21T12:00:52.849Z,23.40
2023-05-21T12:03:26.887Z,23.50
2023-05-21T12:05:54.681Z,23.60
2023-05-21T12:08:25.775Z,23.70
2023-05-21T12:11:00.037Z,23.70
2023-05-21T12:13:28.372Z,23.90
2023-05-21T12:15:56.045Z,23.90
2023-05-21T12:18:23.371Z,24.00
2023-05-21T12:20:52.361Z,24.00
2023-05-21T12:23:30.334Z,24.10
2023-05-21T12:25:57.780Z,24.20
2023-05-21T12:28:25.357Z,24.40
2023-05-21T12:30:53.545Z,24.40
2023-05-21T12:33:23.131Z,24.50
2023-05-21T12:35:52.524Z,24.60
2023-05-21T12:38:19.999Z,24.70
2023-05-21T12:40:47.332Z,24.80
2023-05-21T12:43:14.745Z,24.80
2023-05-21T12:45:43.491Z,24.90
2023-05-21T12:48:11.987Z,25.00
2023-05-21T12:50:40.958Z,25.00
2023-05-21T12:53:11.379Z,25.10
2023-05-21T12:55:38.870Z,25.10
2023-05-21T12:58:08.784Z,25.20
2023-05-21T13:00:37.007Z,25.20
2023-05-21T13:03:06.231Z,25.30
2023-05-21T13:05:34.315Z,25.40
2023-05-21T13:08:01.934Z,25.50
2023-05-21T13:10:29.249Z,25.50
2023-05-21T13:12:56.592Z,25.50
2023-05-21T13:15:24.085Z,25.60
2023-05-21T13:17:52.566Z,25.70
2023-05-21T13:20:23.736Z,25.70
2023-05-21T13:22:52.247Z,25.70
2023-05-21T13:25:29.722Z,25.80
2023-05-21T13:27:57.639Z,25.90
2023-05-21T13:30:24.906Z,26.00
2023-05-21T13:32:52.635Z,26.20
2023-05-21T13:35:20.261Z,26.20
2023-05-21T13:37:47.840Z,26.40
2023-05-21T13:40:16.353Z,26.50
2023-05-21T13:42:49.248Z,26.60
2023-05-21T13:45:18.599Z,26.60
2023-05-21T13:47:47.023Z,26.60
2023-05-21T13:50:14.680Z,26.60
2023-05-21T13:52:42.181Z,26.60
2023-05-21T13:55:10.588Z,26.60
2023-05-21T13:57:38.164Z,26.60
2023-05-21T14:00:06.413Z,26.60
2023-05-21T14:02:35.193Z,26.60
2023-05-21T14:05:02.880Z,26.60
2023-05-21T14:07:30.956Z,26.60
2023-05-21T14:09:58.346Z,26.60
2023-05-21T14:12:26.707Z,26.60
2023-05-21T14:14:54.159Z,26.60
2023-05-21T14:17:21.524Z,26.50
2023-05-21T14:19:48.938Z,26.60
2023-05-21T14:22:16.265Z,26.60
2023-05-21T14:24:43.585Z,26.70
2023-05-21T14:27:12.181Z,26.70
2023-05-21T14:29:40.683Z,26.80
2023-05-21T14:32:08.317Z,26.90
2023-05-21T14:34:35.763Z,27.00
2023-05-21T14:37:03.248Z,27.10
2023-05-21T14:39:30.746Z,27.00
2023-05-21T14:41:58.209Z,27.00
2023-05-21T14:44:25.472Z,27.00
2023-05-21T14:46:52.766Z,26.90
2023-05-21T14:49:20.159Z,26.90
2023-05-21T14:51:47.776Z,26.90
2023-05-21T14:54:15.319Z,27.00
2023-05-21T14:56:42.736Z,27.00
2023-05-21T14:59:12.703Z,27.00
2023-05-21T15:01:40.274Z,26.90
2023-05-21T15:04:08.135Z,26.90
2023-05-21T15:06:35.735Z,26.80
2023-05-21T15:09:03.504Z,26.90
2023-05-21T15:11:31.073Z,27.00
2023-05-21T15:13:58.328Z,27.00
2023-05-21T15:16:25.895Z,27.10
2023-05-21T15:18:53.691Z,27.20
2023-05-21T15:21:21.102Z,27.30
2023-05-21T15:23:48.486Z,27.30
2023-05-21T15:26:18.093Z,27.40
2023-05-21T15:28:45.512Z,27.40
2023-05-21T15:31:12.820Z,27.50
2023-05-21T15:33:40.119Z,27.40
2023-05-21T15:36:07.857Z,27.50
2023-05-21T15:38:35.158Z,27.50
2023-05-21T15:41:02.642Z,27.50
2023-05-21T15:43:30.531Z,27.50
2023-05-21T15:45:58.448Z,27.40
2023-05-21T15:48:25.707Z,27.40
2023-05-21T15:50:53.296Z,27.30
2023-05-21T15:53:20.685Z,27.10
2023-05-21T15:55:48.314Z,27.10
2023-05-21T15:58:16.456Z,27.00
2023-05-21T16:00:43.980Z,27.10
2023-05-21T16:03:12.628Z,27.10
2023-05-21T16:05:40.083Z,27.10
2023-05-21T16:08:10.624Z,27.20
2023-05-21T16:10:39.978Z,27.20
2023-05-21T16:13:07.526Z,27.20
2023-05-21T16:15:35.033Z,27.20
2023-05-21T16:18:02.606Z,27.20
2023-05-21T16:20:30.890Z,27.20
2023-05-21T16:22:58.277Z,27.50
2023-05-21T16:25:25.680Z,28.00
2023-05-21T16:27:53.132Z,28.30
2023-05-21T16:30:20.981Z,28.60
2023-05-21T16:32:48.413Z,28.90
2023-05-21T16:35:15.904Z,28.90
2023-05-21T16:37:43.359Z,28.70
2023-05-21T16:40:11.026Z,28.30
2023-05-21T16:42:39.736Z,28.00
2023-05-21T16:45:07.533Z,27.80
2023-05-21T16:47:34.946Z,27.60
2023-05-21T16:50:02.350Z,27.40
2023-05-21T16:52:30.072Z,27.20
2023-05-21T16:54:57.325Z,27.00
2023-05-21T16:57:24.817Z,26.90
2023-05-21T16:59:52.228Z,26.70
2023-05-21T17:02:19.877Z,26.60
2023-05-21T17:04:47.538Z,26.50
2023-05-21T17:07:16.015Z,26.40
2023-05-21T17:09:43.350Z,26.20
2023-05-21T17:12:10.670Z,26.20
2023-05-21T17:14:39.715Z,26.00
2023-05-21T17:17:07.706Z,25.90
2023-05-21T17:19:35.161Z,25.80
2023-05-21T17:22:02.675Z,25.70
2023-05-21T17:24:33.288Z,25.60
2023-05-21T17:27:00.685Z,25.50
2023-05-21T17:29:29.284Z,25.40
2023-05-21T17:31:56.682Z,25.30
2023-05-21T17:34:29.353Z,25.20
2023-05-21T17:36:57.895Z,25.10
2023-05-21T17:39:25.849Z,24.90
2023-05-21T17:41:53.200Z,24.80
2023-05-21T17:44:21.585Z,24.70
2023-05-21T17:46:50.096Z,24.60
2023-05-21T17:49:17.709Z,24.40
2023-05-21T17:51:45.548Z,24.30
2023-05-21T17:54:12.888Z,24.20
2023-05-21T17:56:40.451Z,24.10
2023-05-21T17:59:11.089Z,24.10
2023-05-21T18:01:39.580Z,24.00
2023-05-21T18:04:12.190Z,23.80
2023-05-21T18:06:40.101Z,23.60
2023-05-21T18:09:07.987Z,23.40
2023-05-21T18:11:35.497Z,23.30
2023-05-21T18:14:03.940Z,23.10
2023-05-21T18:16:31.719Z,23.00
2023-05-21T18:19:02.132Z,23.00
2023-05-21T18:21:29.631Z,23.00
2023-05-21T18:23:59.687Z,22.90
2023-05-21T18:26:27.601Z,22.90
2023-05-21T18:28:55.599Z,22.80
2023-05-21T18:31:27.557Z,22.80
2023-05-21T18:33:55.365Z,22.70
2023-05-21T18:36:23.944Z,22.60
2023-05-21T18:38:52.263Z,22.60
2023-05-21T18:41:20.227Z,22.60
2023-05-21T18:43:48.193Z,22.50
2023-05-21T18:46:15.760Z,22.40
2023-05-21T18:48:43.358Z,22.40
2023-05-21T18:51:10.752Z,22.30
2023-05-21T18:53:39.523Z,22.30
2023-05-21T18:56:07.596Z,22.10
2023-05-21T18:58:35.911Z,22.00
2023-05-21T19:01:03.548Z,22.00
2023-05-21T19:03:32.068Z,22.00
2023-05-21T19:06:00.467Z,21.90
2023-05-21T19:08:28.291Z,21.80
2023-05-21T19:10:55.595Z,21.80
2023-05-21T19:13:23.583Z,21.80
2023-05-21T19:15:50.843Z,21.80
2023-05-21T19:18:18.703Z,21.70
2023-05-21T19:20:46.151Z,21.70
2023-05-21T19:23:14.079Z,21.50
2023-05-21T19:25:41.639Z,21.50
2023-05-21T19:28:08.984Z,21.40
2023-05-21T19:30:42.423Z,21.40
2023-05-21T19:33:09.905Z,21.40
2023-05-21T19:35:37.823Z,21.30
2023-05-21T19:38:05.678Z,21.30
2023-05-21T19:40:33.712Z,21.30
2023-05-21T19:43:01.289Z,21.20
2023-05-21T19:45:28.778Z,21.10
2023-05-21T19:47:56.794Z,21.10
2023-05-21T19:50:24.685Z,21.10
2023-05-21T19:52:52.297Z,21.00
2023-05-21T19:55:20.076Z,21.00
2023-05-21T19:57:47.791Z,20.90
2023-05-21T20:00:17.308Z,20.90
2023-05-21T20:02:46.188Z,20.80
2023-05-21T20:05:13.880Z,20.90
2023-05-21T20:07:41.462Z,20.80
2023-05-21T20:10:08.971Z,20.90
2023-05-21T20:12:36.906Z,20.90
2023-05-21T20:15:07.039Z,20.90
2023-05-21T20:17:36.980Z,20.90
2023-05-21T20:20:11.085Z,20.80
2023-05-21T20:22:39.076Z,20.70
2023-05-21T20:25:10.488Z,20.80
2023-05-21T20:27:38.922Z,20.70
2023-05-21T20:30:07.784Z,20.70
2023-05-21T20:32:35.201Z,20.70
2023-05-21T20:35:03.693Z,20.80
2023-05-21T20:37:32.758Z,20.70
2023-05-21T20:40:00.262Z,20.60
2023-05-21T20:42:33.951Z,20.50
2023-05-21T20:45:01.846Z,20.40
2023-05-21T20:47:29.866Z,20.40
2023-05-21T20:49:58.966Z,20.30
2023-05-21T20:52:26.986Z,20.40
2023-05-21T20:54:54.909Z,20.30
2023-05-21T20:57:26.226Z,20.30
2023-05-21T20:59:53.789Z,20.30
2023-05-21T21:02:21.785Z,20.30
2023-05-21T21:04:50.596Z,20.30
2023-05-21T21:07:19.270Z,20.30
2023-05-21T21:09:47.229Z,20.20
2023-05-21T21:12:25.903Z,20.20
2023-05-21T21:14:54.054Z,20.20
2023-05-21T21:17:21.465Z,20.20
2023-05-21T21:19:48.846Z,20.10
2023-05-21T21:22:16.437Z,20.10
2023-05-21T21:24:43.801Z,20.00
2023-05-21T21:27:11.110Z,19.90
2023-05-21T21:29:38.429Z,19.90
2023-05-21T21:32:06.212Z,20.00
2023-05-21T21:34:33.511Z,20.00
2023-05-21T21:37:00.819Z,20.00
2023-05-21T21:39:28.095Z,20.00
2023-05-21T21:41:55.792Z,20.00
2023-05-21T21:44:23.048Z,20.00
2023-05-21T21:46:50.383Z,19.90
2023-05-21T21:49:17.774Z,19.90
2023-05-21T21:51:45.600Z,19.90
2023-05-21T21:54:13.025Z,19.90
2023-05-21T21:56:40.595Z,19.90
2023-05-21T21:59:07.820Z,19.90
2023-05-21T22:01:35.959Z,19.90
2023-05-21T22:04:03.428Z,19.90
2023-05-21T22:06:31.413Z,19.90
2023-05-21T22:08:58.957Z,19.90
2023-05-21T22:11:28.405Z,20.00
2023-05-21T22:13:56.130Z,20.00
2023-05-21T22:16:26.099Z,20.00
2023-05-21T22:18:54.265Z,20.00
2023-05-21T22:21:26.991Z,20.00
2023-05-21T22:23:54.322Z,20.00
2023-05-21T22:26:23.045Z,20.00
2023-05-21T22:28:51.374Z,19.90
2023-05-21T22:31:18.828Z,19.90
2023-05-21T22:33:46.217Z,19.80
2023-05-21T22:36:13.532Z,19.80
2023-05-21T22:38:40.889Z,19.80
2023-05-21T22:41:08.594Z,19.70
2023-05-21T22:43:36.892Z,19.70
2023-05-21T22:46:04.362Z,19.70
2023-05-21T22:48:31.651Z,19.70
2023-05-21T22:51:01.718Z,19.70
2023-05-21T22:53:29.326Z,19.70
2023-05-21T22:55:56.695Z,19.70
2023-05-21T22:58:24.161Z,19.70
2023-05-21T23:00:51.473Z,19.60
2023-05-21T23:03:18.900Z,19.60
2023-05-21T23:05:46.356Z,19.60
2023-05-21T23:08:13.859Z,19.60
2023-05-21T23:10:41.483Z,19.60
2023-05-21T23:13:09.297Z,19.60
2023-05-21T23:15:38.756Z,19.60
2023-05-21T23:18:07.754Z,19.60
2023-05-21T23:20:35.440Z,19.60
2023-05-21T23:23:03.027Z,19.60
2023-05-21T23:25:30.883Z,19.50
2023-05-21T23:27:58.217Z,19.50
2023-05-21T23:30:25.493Z,19.50
2023-05-21T23:32:52.869Z,19.50
2023-05-21T23:35:20.138Z,19.50
2023-05-21T23:37:47.683Z,19.50
2023-05-21T23:40:15.198Z,19.50
2023-05-21T23:42:42.959Z,19.40
2023-05-21T23:45:10.700Z,19.40
2023-05-21T23:47:38.057Z,19.40
2023-05-21T23:50:06.228Z,19.40
2023-05-21T23:52:33.538Z,19.40
2023-05-21T23:55:00.891Z,19.40
2023-05-21T23:57:28.217Z,19.40
2023-05-21T23:59:55.698Z,19.30
